KLM590 DGAA-EHAM
Flight info
| Callsign | KLM590 |
|---|---|
| Flight time | N/A |
| Altitude | 35000 |
| Route | ACC UB726 PAMPA DCT TATAT DCT IPUTA DCT ABALA DCT MIGNI/N0491F370 DCT EREBO/N0493F360 UA604 TMS/N0490F370 UZ111 OPRIC/N0483F380 UZ111 ELO UR978 KAMER DCT NAFOQ DCT SURJU DCT PADKO DCT MOPEM DCT SIZZA DCT ENORI DCT MEDIL DCT FERDI Y18 DENUT |
| Aircraft | B77W/H-SDE1E2E3FGHIJ2J3J4J5M1RWXY/LB1D1 |
Departure
| Time | 2026-04-23 12:07 |
|---|---|
| Airport | Kotoka International Airport (DGAA) |
Arrival
| Time | N/A |
|---|---|
| Airport | Amsterdam Airport Schiphol (EHAM) |
| Time | Latitude | Longitude | Altitude | Speed | Heading |
|---|---|---|---|---|---|
| 2026-04-23 11:46 | 5.60339 | -0.17108 | 218 ft | 0 kts | 292° |
| 2026-04-23 11:58 | 5.60335 | -0.17098 | 218 ft | 2 kts | 292° |
| 2026-04-23 11:59 | 5.60330 | -0.17084 | 218 ft | 2 kts | 292° |
| 2026-04-23 11:59 | 5.60324 | -0.17070 | 218 ft | 2 kts | 292° |
| 2026-04-23 11:59 | 5.60318 | -0.17057 | 218 ft | 2 kts | 306° |
| 2026-04-23 11:59 | 5.60307 | -0.17046 | 218 ft | 2 kts | 326° |
| 2026-04-23 12:00 | 5.60294 | -0.17039 | 218 ft | 2 kts | 342° |
| 2026-04-23 12:00 | 5.60280 | -0.17036 | 218 ft | 2 kts | 358° |
| 2026-04-23 12:00 | 5.60265 | -0.17037 | 218 ft | 2 kts | 15° |
| 2026-04-23 12:00 | 5.60257 | -0.17039 | 218 ft | 1 kts | 23° |
| 2026-04-23 12:01 | 5.60255 | -0.17040 | 218 ft | 0 kts | 23° |
| 2026-04-23 12:02 | 5.60276 | -0.17031 | 218 ft | 6 kts | 22° |
| 2026-04-23 12:03 | 5.60333 | -0.17008 | 218 ft | 11 kts | 22° |
| 2026-04-23 12:03 | 5.60423 | -0.16971 | 218 ft | 16 kts | 22° |
| 2026-04-23 12:03 | 5.60540 | -0.16924 | 218 ft | 20 kts | 22° |
| 2026-04-23 12:03 | 5.60672 | -0.16870 | 219 ft | 20 kts | 22° |
| 2026-04-23 12:04 | 5.60800 | -0.16819 | 219 ft | 19 kts | 21° |
| 2026-04-23 12:04 | 5.60924 | -0.16771 | 219 ft | 18 kts | 21° |
| 2026-04-23 12:04 | 5.61043 | -0.16720 | 219 ft | 18 kts | 25° |
| 2026-04-23 12:04 | 5.61163 | -0.16667 | 219 ft | 19 kts | 22° |
| 2026-04-23 12:05 | 5.61292 | -0.16614 | 219 ft | 20 kts | 22° |
| 2026-04-23 12:05 | 5.61419 | -0.16562 | 219 ft | 19 kts | 22° |
| 2026-04-23 12:05 | 5.61541 | -0.16512 | 219 ft | 18 kts | 22° |
| 2026-04-23 12:05 | 5.61623 | -0.16445 | 219 ft | 13 kts | 75° |
| 2026-04-23 12:06 | 5.61588 | -0.16360 | 219 ft | 13 kts | 132° |
| 2026-04-23 12:06 | 5.61501 | -0.16327 | 219 ft | 13 kts | 185° |
| 2026-04-23 12:06 | 5.61194 | -0.16446 | 219 ft | 66 kts | 202° |
| 2026-04-23 12:07 | 5.60524 | -0.16720 | 219 ft | 139 kts | 202° |
| 2026-04-23 12:07 | 5.59431 | -0.17170 | 385 ft | 187 kts | 205° |
| 2026-04-23 12:07 | 5.58268 | -0.17729 | 1215 ft | 189 kts | 208° |
| 2026-04-23 12:07 | 5.57118 | -0.18292 | 1973 ft | 191 kts | 208° |
| 2026-04-23 12:08 | 5.55809 | -0.18772 | 2438 ft | 207 kts | 186° |
| 2026-04-23 12:08 | 5.54385 | -0.18557 | 3018 ft | 219 kts | 156° |
| 2026-04-23 12:08 | 5.53176 | -0.17558 | 3463 ft | 236 kts | 124° |
| 2026-04-23 12:08 | 5.52643 | -0.16002 | 4005 ft | 245 kts | 89° |
| 2026-04-23 12:09 | 5.53103 | -0.14357 | 4543 ft | 256 kts | 57° |
| 2026-04-23 12:09 | 5.54371 | -0.13050 | 5254 ft | 264 kts | 30° |
| 2026-04-23 12:09 | 5.56050 | -0.12460 | 6168 ft | 266 kts | 7° |
| 2026-04-23 12:09 | 5.57884 | -0.12698 | 7091 ft | 272 kts | 342° |
| 2026-04-23 12:10 | 5.59611 | -0.13514 | 7856 ft | 281 kts | 338° |
| 2026-04-23 12:10 | 5.61337 | -0.14430 | 8741 ft | 281 kts | 338° |
| 2026-04-23 12:10 | 5.63141 | -0.15106 | 9491 ft | 275 kts | 359° |
| 2026-04-23 12:10 | 5.65013 | -0.14994 | 10173 ft | 273 kts | 16° |
| 2026-04-23 12:11 | 5.66924 | -0.14491 | 10606 ft | 290 kts | 20° |
| 2026-04-23 12:11 | 5.68924 | -0.13887 | 11052 ft | 307 kts | 20° |
| 2026-04-23 12:11 | 5.71029 | -0.13249 | 11494 ft | 324 kts | 19° |
| 2026-04-23 12:11 | 5.73237 | -0.12583 | 11929 ft | 341 kts | 19° |
| 2026-04-23 12:12 | 5.75553 | -0.11888 | 12364 ft | 356 kts | 19° |
| 2026-04-23 12:12 | 5.78000 | -0.11153 | 12780 ft | 371 kts | 19° |
| 2026-04-23 12:12 | 5.80513 | -0.10400 | 13336 ft | 381 kts | 19° |
| 2026-04-23 12:12 | 5.83043 | -0.09641 | 14037 ft | 385 kts | 18° |
| 2026-04-23 12:13 | 5.85640 | -0.08862 | 14694 ft | 391 kts | 18° |
| 2026-04-23 12:13 | 5.88260 | -0.08076 | 15317 ft | 397 kts | 18° |
| 2026-04-23 12:13 | 5.90940 | -0.07272 | 15904 ft | 403 kts | 18° |
| 2026-04-23 12:13 | 5.93646 | -0.06460 | 16539 ft | 408 kts | 18° |
| 2026-04-23 12:14 | 5.96363 | -0.05644 | 17191 ft | 412 kts | 18° |
| 2026-04-23 12:14 | 5.99161 | -0.04804 | 17772 ft | 417 kts | 17° |
| 2026-04-23 12:14 | 6.01939 | -0.03970 | 18330 ft | 423 kts | 17° |
| 2026-04-23 12:14 | 6.04786 | -0.03114 | 18884 ft | 428 kts | 17° |
| 2026-04-23 12:15 | 6.07657 | -0.02252 | 19450 ft | 433 kts | 17° |
| 2026-04-23 12:15 | 6.10569 | -0.01377 | 19962 ft | 438 kts | 17° |
| 2026-04-23 12:15 | 6.13503 | -0.00496 | 20425 ft | 445 kts | 17° |
| 2026-04-23 12:15 | 6.16482 | 0.00400 | 20925 ft | 450 kts | 17° |
| 2026-04-23 12:16 | 6.19517 | 0.01312 | 21459 ft | 454 kts | 16° |
| 2026-04-23 12:16 | 6.22542 | 0.02221 | 21943 ft | 458 kts | 16° |
| 2026-04-23 12:16 | 6.25613 | 0.03144 | 22410 ft | 463 kts | 16° |
| 2026-04-23 12:16 | 6.28726 | 0.04080 | 22948 ft | 465 kts | 16° |
| 2026-04-23 12:17 | 6.31814 | 0.05009 | 23586 ft | 464 kts | 16° |
| 2026-04-23 12:17 | 6.34917 | 0.05942 | 24227 ft | 463 kts | 17° |
| 2026-04-23 12:17 | 6.38011 | 0.06872 | 24770 ft | 464 kts | 17° |
| 2026-04-23 12:17 | 6.41113 | 0.07805 | 25265 ft | 467 kts | 17° |
| 2026-04-23 12:18 | 6.44234 | 0.08745 | 25721 ft | 470 kts | 17° |
| 2026-04-23 12:18 | 6.47373 | 0.09689 | 26261 ft | 470 kts | 17° |
| 2026-04-23 12:18 | 6.50538 | 0.10642 | 26840 ft | 470 kts | 17° |
| 2026-04-23 12:18 | 6.53680 | 0.11587 | 27372 ft | 471 kts | 17° |
| 2026-04-23 12:19 | 6.56827 | 0.12535 | 27861 ft | 473 kts | 17° |
| 2026-04-23 12:19 | 6.59994 | 0.13488 | 28312 ft | 476 kts | 17° |
| 2026-04-23 12:19 | 6.63175 | 0.14445 | 28731 ft | 479 kts | 17° |
| 2026-04-23 12:19 | 6.66391 | 0.15412 | 29104 ft | 484 kts | 17° |
| 2026-04-23 12:20 | 6.69611 | 0.16380 | 29508 ft | 488 kts | 17° |
| 2026-04-23 12:20 | 6.72877 | 0.17362 | 29996 ft | 490 kts | 17° |
| 2026-04-23 12:20 | 6.76154 | 0.18348 | 30514 ft | 491 kts | 18° |
| 2026-04-23 12:20 | 6.79449 | 0.19340 | 31028 ft | 492 kts | 18° |
| 2026-04-23 12:21 | 6.82761 | 0.20336 | 31491 ft | 494 kts | 18° |
| 2026-04-23 12:21 | 6.86070 | 0.21332 | 31907 ft | 497 kts | 18° |
| 2026-04-23 12:21 | 6.89376 | 0.22327 | 32328 ft | 499 kts | 18° |
| 2026-04-23 12:21 | 6.92725 | 0.23335 | 32791 ft | 501 kts | 18° |
| 2026-04-23 12:22 | 6.96059 | 0.24339 | 33358 ft | 501 kts | 18° |
| 2026-04-23 12:22 | 6.99389 | 0.25341 | 34059 ft | 497 kts | 18° |
| 2026-04-23 12:22 | 7.02732 | 0.26348 | 34725 ft | 494 kts | 18° |
| 2026-04-23 12:22 | 7.06059 | 0.27350 | 34837 ft | 497 kts | 18° |
| 2026-04-23 12:23 | 7.12655 | 0.29337 | 34827 ft | 492 kts | 18° |
| 2026-04-23 12:23 | 7.19239 | 0.31322 | 34821 ft | 494 kts | 18° |
| 2026-04-23 12:24 | 7.25820 | 0.33306 | 34827 ft | 493 kts | 18° |
| 2026-04-23 12:24 | 7.32445 | 0.35304 | 34833 ft | 495 kts | 18° |
| 2026-04-23 12:25 | 7.39038 | 0.37293 | 34833 ft | 493 kts | 18° |
| 2026-04-23 12:25 | 7.45647 | 0.39287 | 34833 ft | 494 kts | 18° |
| 2026-04-23 12:26 | 7.52272 | 0.41287 | 34834 ft | 494 kts | 18° |
| 2026-04-23 12:26 | 7.58843 | 0.43271 | 34835 ft | 494 kts | 18° |
| 2026-04-23 12:27 | 7.65489 | 0.45278 | 34839 ft | 495 kts | 18° |
| 2026-04-23 12:27 | 7.72074 | 0.47267 | 34846 ft | 494 kts | 18° |
| 2026-04-23 12:28 | 7.78644 | 0.49253 | 34847 ft | 494 kts | 18° |
| 2026-04-23 12:28 | 7.85231 | 0.51245 | 34857 ft | 494 kts | 18° |
| 2026-04-23 12:29 | 7.91836 | 0.53242 | 34869 ft | 494 kts | 18° |
| 2026-04-23 12:29 | 7.98425 | 0.55235 | 34880 ft | 494 kts | 18° |
| 2026-04-23 12:30 | 8.04705 | 0.57982 | 34885 ft | 492 kts | 31° |
| 2026-04-23 12:30 | 8.10694 | 0.61379 | 34874 ft | 491 kts | 31° |
| 2026-04-23 12:31 | 8.16644 | 0.64766 | 34874 ft | 491 kts | 31° |
| 2026-04-23 12:31 | 8.22597 | 0.68153 | 34887 ft | 491 kts | 31° |
| 2026-04-23 12:32 | 8.28586 | 0.71560 | 34891 ft | 491 kts | 31° |
| 2026-04-23 12:32 | 8.34518 | 0.74936 | 34895 ft | 490 kts | 31° |
| 2026-04-23 12:33 | 8.40466 | 0.78321 | 34891 ft | 491 kts | 31° |
| 2026-04-23 12:33 | 8.46412 | 0.81706 | 34880 ft | 488 kts | 31° |
| 2026-04-23 12:34 | 8.52326 | 0.85075 | 34873 ft | 486 kts | 31° |
| 2026-04-23 12:34 | 8.58248 | 0.88449 | 34875 ft | 486 kts | 30° |
| 2026-04-23 12:35 | 8.64127 | 0.91800 | 34879 ft | 488 kts | 30° |
| 2026-04-23 12:35 | 8.70042 | 0.95172 | 34878 ft | 489 kts | 30° |
| 2026-04-23 12:36 | 8.75984 | 0.98562 | 34875 ft | 491 kts | 30° |
| 2026-04-23 12:36 | 8.81921 | 1.01949 | 34871 ft | 489 kts | 30° |
| 2026-04-23 12:37 | 8.87866 | 1.05342 | 34875 ft | 489 kts | 30° |
| 2026-04-23 12:37 | 8.93798 | 1.08730 | 34873 ft | 490 kts | 30° |
| 2026-04-23 12:38 | 8.99709 | 1.12106 | 34871 ft | 489 kts | 30° |
| 2026-04-23 12:38 | 9.05642 | 1.15496 | 34875 ft | 487 kts | 30° |
| 2026-04-23 12:39 | 9.11556 | 1.18877 | 34880 ft | 489 kts | 30° |
| 2026-04-23 12:39 | 9.17501 | 1.22277 | 34886 ft | 491 kts | 30° |
| 2026-04-23 12:40 | 9.23455 | 1.25683 | 34898 ft | 490 kts | 30° |
| 2026-04-23 12:40 | 9.29374 | 1.29071 | 34891 ft | 489 kts | 29° |
| 2026-04-23 12:41 | 9.35289 | 1.32458 | 34881 ft | 491 kts | 29° |
| 2026-04-23 12:41 | 9.41248 | 1.35871 | 34868 ft | 490 kts | 29° |
| 2026-04-23 12:42 | 9.47178 | 1.39269 | 34856 ft | 490 kts | 29° |
| 2026-04-23 12:42 | 9.53102 | 1.42664 | 34854 ft | 490 kts | 29° |
| 2026-04-23 12:43 | 9.59060 | 1.46081 | 34857 ft | 491 kts | 29° |
| 2026-04-23 12:43 | 9.65001 | 1.49490 | 34859 ft | 490 kts | 29° |
| 2026-04-23 12:44 | 9.70918 | 1.52886 | 34859 ft | 489 kts | 29° |
| 2026-04-23 12:44 | 9.76838 | 1.56285 | 34863 ft | 490 kts | 29° |
| 2026-04-23 12:45 | 9.82758 | 1.59686 | 34860 ft | 490 kts | 29° |
| 2026-04-23 12:45 | 9.88729 | 1.63118 | 34847 ft | 492 kts | 29° |
| 2026-04-23 12:46 | 9.94697 | 1.66548 | 34841 ft | 490 kts | 29° |
| 2026-04-23 12:46 | 10.00657 | 1.69976 | 34837 ft | 491 kts | 29° |
| 2026-04-23 12:47 | 10.06574 | 1.73380 | 34836 ft | 491 kts | 29° |
| 2026-04-23 12:47 | 10.12520 | 1.76802 | 34833 ft | 490 kts | 29° |
| 2026-04-23 12:48 | 10.18499 | 1.80245 | 34830 ft | 493 kts | 29° |
| 2026-04-23 12:48 | 10.24461 | 1.83680 | 34831 ft | 493 kts | 29° |
| 2026-04-23 12:49 | 10.30405 | 1.87107 | 34833 ft | 492 kts | 29° |
| 2026-04-23 12:49 | 10.36394 | 1.90561 | 34831 ft | 493 kts | 29° |
| 2026-04-23 12:50 | 10.42338 | 1.93989 | 34834 ft | 491 kts | 29° |
| 2026-04-23 12:50 | 10.48295 | 1.97428 | 34830 ft | 492 kts | 29° |
| 2026-04-23 12:51 | 10.54277 | 2.00882 | 34835 ft | 495 kts | 29° |
| 2026-04-23 12:51 | 10.60257 | 2.04336 | 34833 ft | 492 kts | 29° |
| 2026-04-23 12:52 | 10.66252 | 2.07801 | 34832 ft | 496 kts | 29° |
| 2026-04-23 12:52 | 10.72247 | 2.11267 | 34830 ft | 492 kts | 29° |
| 2026-04-23 12:53 | 10.78199 | 2.14710 | 34830 ft | 494 kts | 29° |
| 2026-04-23 12:53 | 10.84174 | 2.18168 | 34826 ft | 494 kts | 29° |
| 2026-04-23 12:54 | 10.90188 | 2.21650 | 34818 ft | 495 kts | 29° |
| 2026-04-23 12:54 | 10.96175 | 2.25118 | 34815 ft | 497 kts | 29° |
| 2026-04-23 12:55 | 11.02255 | 2.28381 | 34820 ft | 494 kts | 24° |
| 2026-04-23 12:55 | 11.08543 | 2.31244 | 34810 ft | 494 kts | 23° |
| 2026-04-23 12:56 | 11.14843 | 2.34109 | 34809 ft | 495 kts | 24° |
| 2026-04-23 12:56 | 11.21129 | 2.36972 | 34811 ft | 494 kts | 23° |
| 2026-04-23 12:57 | 11.27433 | 2.39847 | 34811 ft | 496 kts | 23° |
| 2026-04-23 12:57 | 11.33732 | 2.42721 | 34812 ft | 494 kts | 24° |
| 2026-04-23 12:58 | 11.40015 | 2.45591 | 34814 ft | 494 kts | 23° |
| 2026-04-23 12:58 | 11.46304 | 2.48465 | 34814 ft | 496 kts | 23° |
| 2026-04-23 12:59 | 11.52563 | 2.51327 | 34815 ft | 494 kts | 23° |
| 2026-04-23 12:59 | 11.58882 | 2.54218 | 34814 ft | 495 kts | 23° |
| 2026-04-23 13:00 | 11.65145 | 2.57085 | 34814 ft | 493 kts | 23° |
| 2026-04-23 13:00 | 11.71412 | 2.59955 | 34814 ft | 495 kts | 23° |
| 2026-04-23 13:01 | 11.77715 | 2.62842 | 34801 ft | 495 kts | 23° |
| 2026-04-23 13:01 | 11.84014 | 2.65731 | 34787 ft | 494 kts | 23° |
| 2026-04-23 13:02 | 11.90264 | 2.68597 | 34778 ft | 494 kts | 23° |
| 2026-04-23 13:02 | 11.96554 | 2.71484 | 34775 ft | 494 kts | 23° |
| 2026-04-23 13:03 | 12.02834 | 2.74367 | 34772 ft | 495 kts | 23° |
| 2026-04-23 13:03 | 12.09111 | 2.77251 | 34773 ft | 494 kts | 23° |
| 2026-04-23 13:04 | 12.15396 | 2.80139 | 34773 ft | 495 kts | 23° |
| 2026-04-23 13:04 | 12.21686 | 2.83032 | 34773 ft | 494 kts | 23° |
| 2026-04-23 13:05 | 12.27998 | 2.85936 | 34779 ft | 496 kts | 23° |
| 2026-04-23 13:05 | 12.34275 | 2.88825 | 34783 ft | 495 kts | 23° |
| 2026-04-23 13:06 | 12.43705 | 2.93169 | 34781 ft | 494 kts | 23° |
| 2026-04-23 13:07 | 12.49974 | 2.96059 | 34784 ft | 495 kts | 23° |
| 2026-04-23 13:07 | 12.56298 | 2.98975 | 34785 ft | 495 kts | 23° |
| 2026-04-23 13:08 | 12.62563 | 3.01866 | 34790 ft | 496 kts | 22° |
| 2026-04-23 13:08 | 12.68901 | 3.04792 | 34791 ft | 495 kts | 22° |
| 2026-04-23 13:09 | 12.75191 | 3.07698 | 34794 ft | 498 kts | 22° |
| 2026-04-23 13:09 | 12.81490 | 3.10609 | 34790 ft | 495 kts | 22° |
| 2026-04-23 13:10 | 12.87827 | 3.13540 | 34790 ft | 498 kts | 22° |
| 2026-04-23 13:10 | 12.94135 | 3.16459 | 34795 ft | 499 kts | 22° |
| 2026-04-23 13:11 | 13.00463 | 3.19388 | 34790 ft | 497 kts | 22° |
| 2026-04-23 13:11 | 13.06774 | 3.22312 | 34780 ft | 497 kts | 22° |
| 2026-04-23 13:12 | 13.13058 | 3.25224 | 34778 ft | 495 kts | 22° |
| 2026-04-23 13:12 | 13.19372 | 3.28152 | 34781 ft | 496 kts | 22° |
| 2026-04-23 13:13 | 13.25658 | 3.31070 | 34782 ft | 495 kts | 22° |
| 2026-04-23 13:13 | 13.31941 | 3.33987 | 34793 ft | 495 kts | 22° |
| 2026-04-23 13:14 | 13.38270 | 3.36927 | 34797 ft | 496 kts | 22° |
| 2026-04-23 13:14 | 13.44552 | 3.39847 | 34796 ft | 495 kts | 22° |
| 2026-04-23 13:15 | 13.50830 | 3.42767 | 34798 ft | 496 kts | 22° |
| 2026-04-23 13:15 | 13.56056 | 3.45196 | 34796 ft | 493 kts | 21° |
| 2026-04-23 13:16 | 13.63432 | 3.48508 | 34798 ft | 495 kts | 21° |
| 2026-04-23 13:16 | 13.69732 | 3.51334 | 34797 ft | 492 kts | 21° |
| 2026-04-23 13:17 | 13.76041 | 3.54167 | 34798 ft | 494 kts | 21° |
| 2026-04-23 13:17 | 13.82348 | 3.57003 | 34802 ft | 492 kts | 20° |
| 2026-04-23 13:18 | 13.88648 | 3.59839 | 34808 ft | 493 kts | 21° |
| 2026-04-23 13:18 | 13.94918 | 3.62663 | 34817 ft | 492 kts | 20° |
| 2026-04-23 13:19 | 14.01207 | 3.65497 | 34822 ft | 492 kts | 20° |
| 2026-04-23 13:19 | 14.07505 | 3.68337 | 34822 ft | 492 kts | 20° |
| 2026-04-23 13:20 | 14.13787 | 3.71171 | 34827 ft | 493 kts | 20° |
| 2026-04-23 13:20 | 14.20030 | 3.73991 | 34824 ft | 492 kts | 20° |
| 2026-04-23 13:21 | 14.26351 | 3.76847 | 34821 ft | 493 kts | 20° |
| 2026-04-23 13:21 | 14.32611 | 3.79677 | 34818 ft | 493 kts | 20° |
| 2026-04-23 13:22 | 14.38915 | 3.82529 | 34816 ft | 492 kts | 20° |
| 2026-04-23 13:22 | 14.45207 | 3.85378 | 34809 ft | 493 kts | 20° |
| 2026-04-23 13:23 | 14.51473 | 3.88216 | 34805 ft | 492 kts | 20° |
| 2026-04-23 13:23 | 14.57774 | 3.91071 | 34809 ft | 495 kts | 20° |
| 2026-04-23 13:24 | 14.64110 | 3.93945 | 34812 ft | 493 kts | 20° |
| 2026-04-23 13:24 | 14.70392 | 3.96796 | 34810 ft | 493 kts | 20° |
| 2026-04-23 13:25 | 14.76656 | 3.99641 | 34815 ft | 494 kts | 20° |
| 2026-04-23 13:25 | 14.82958 | 4.02505 | 34804 ft | 491 kts | 20° |
| 2026-04-23 13:26 | 14.89207 | 4.05346 | 34803 ft | 493 kts | 19° |
| 2026-04-23 13:26 | 14.95498 | 4.08209 | 34814 ft | 492 kts | 19° |
| 2026-04-23 13:27 | 15.01780 | 4.11069 | 34821 ft | 495 kts | 19° |
| 2026-04-23 13:27 | 15.08065 | 4.13933 | 34823 ft | 491 kts | 19° |
| 2026-04-23 13:28 | 15.14341 | 4.16793 | 34826 ft | 493 kts | 19° |
| 2026-04-23 13:28 | 15.20650 | 4.19672 | 34830 ft | 492 kts | 19° |
| 2026-04-23 13:29 | 15.26905 | 4.22527 | 34832 ft | 491 kts | 19° |
| 2026-04-23 13:29 | 15.33170 | 4.25388 | 34831 ft | 493 kts | 19° |
| 2026-04-23 13:30 | 15.39432 | 4.28250 | 34834 ft | 491 kts | 19° |
| 2026-04-23 13:30 | 15.45712 | 4.31121 | 34835 ft | 492 kts | 19° |
| 2026-04-23 13:31 | 15.51953 | 4.33978 | 34840 ft | 491 kts | 19° |
| 2026-04-23 13:31 | 15.58214 | 4.36845 | 34838 ft | 491 kts | 19° |
| 2026-04-23 13:32 | 15.64496 | 4.39723 | 34840 ft | 492 kts | 19° |
| 2026-04-23 13:32 | 15.70759 | 4.42596 | 34839 ft | 490 kts | 19° |
| 2026-04-23 13:33 | 15.77046 | 4.45481 | 34840 ft | 492 kts | 19° |
| 2026-04-23 13:33 | 15.83266 | 4.48338 | 34836 ft | 489 kts | 19° |
| 2026-04-23 13:34 | 15.89527 | 4.51214 | 34837 ft | 489 kts | 19° |
| 2026-04-23 13:34 | 15.95763 | 4.54081 | 34849 ft | 492 kts | 18° |
| 2026-04-23 13:35 | 16.02046 | 4.56972 | 34860 ft | 492 kts | 19° |
| 2026-04-23 13:35 | 16.08108 | 4.60240 | 34863 ft | 495 kts | 25° |
| 2026-04-23 13:36 | 16.14049 | 4.63916 | 34867 ft | 497 kts | 25° |
| 2026-04-23 13:36 | 16.19989 | 4.67597 | 34857 ft | 495 kts | 25° |
| 2026-04-23 13:37 | 16.25934 | 4.71280 | 34856 ft | 495 kts | 25° |
| 2026-04-23 13:37 | 16.31842 | 4.74941 | 34858 ft | 497 kts | 25° |
| 2026-04-23 13:38 | 16.37802 | 4.78637 | 34858 ft | 496 kts | 25° |
| 2026-04-23 13:38 | 16.43693 | 4.82293 | 34856 ft | 494 kts | 25° |
| 2026-04-23 13:39 | 16.49624 | 4.85975 | 34853 ft | 497 kts | 25° |
| 2026-04-23 13:39 | 16.55526 | 4.89644 | 34850 ft | 494 kts | 25° |
| 2026-04-23 13:40 | 16.61472 | 4.93339 | 34851 ft | 497 kts | 25° |
| 2026-04-23 13:40 | 16.67410 | 4.97035 | 34849 ft | 496 kts | 25° |
| 2026-04-23 13:41 | 16.73337 | 5.00725 | 34847 ft | 496 kts | 25° |
| 2026-04-23 13:41 | 16.79241 | 5.04405 | 34842 ft | 496 kts | 25° |
| 2026-04-23 13:42 | 16.85172 | 5.08103 | 34840 ft | 496 kts | 25° |
| 2026-04-23 13:42 | 16.91105 | 5.11806 | 34843 ft | 496 kts | 25° |
| 2026-04-23 13:43 | 16.97022 | 5.15501 | 34845 ft | 496 kts | 25° |
| 2026-04-23 13:43 | 17.02955 | 5.19209 | 34846 ft | 498 kts | 25° |
| 2026-04-23 13:44 | 17.08874 | 5.22912 | 34849 ft | 494 kts | 25° |
| 2026-04-23 13:44 | 17.14776 | 5.26605 | 34863 ft | 496 kts | 25° |
| 2026-04-23 13:45 | 17.19729 | 5.29708 | 34869 ft | 495 kts | 25° |
| 2026-04-23 13:45 | 17.26607 | 5.34019 | 34873 ft | 496 kts | 25° |
| 2026-04-23 13:46 | 17.32499 | 5.37716 | 34868 ft | 493 kts | 25° |
| 2026-04-23 13:46 | 17.38397 | 5.41418 | 34869 ft | 495 kts | 25° |
| 2026-04-23 13:47 | 17.44262 | 5.45104 | 34876 ft | 492 kts | 25° |
| 2026-04-23 13:47 | 17.50169 | 5.48817 | 34875 ft | 494 kts | 25° |
| 2026-04-23 13:48 | 17.56035 | 5.52509 | 34877 ft | 491 kts | 25° |
| 2026-04-23 13:48 | 17.61941 | 5.56227 | 34874 ft | 494 kts | 25° |
| 2026-04-23 13:49 | 17.67810 | 5.59928 | 34879 ft | 490 kts | 24° |
| 2026-04-23 13:49 | 17.73678 | 5.63627 | 34879 ft | 494 kts | 25° |
| 2026-04-23 13:50 | 17.79556 | 5.67338 | 34861 ft | 491 kts | 25° |
| 2026-04-23 13:50 | 17.85646 | 5.70391 | 34943 ft | 488 kts | 14° |
| 2026-04-23 13:50 | 17.88829 | 5.71635 | 35323 ft | 490 kts | 14° |
| 2026-04-23 13:51 | 17.92024 | 5.72881 | 36004 ft | 486 kts | 14° |
| 2026-04-23 13:51 | 17.95160 | 5.74107 | 36718 ft | 482 kts | 14° |
| 2026-04-23 13:51 | 17.98315 | 5.75338 | 36854 ft | 485 kts | 14° |
| 2026-04-23 13:52 | 18.04623 | 5.77806 | 36858 ft | 480 kts | 13° |
| 2026-04-23 13:52 | 18.10936 | 5.80277 | 36858 ft | 485 kts | 13° |
| 2026-04-23 13:53 | 18.17268 | 5.82760 | 36862 ft | 484 kts | 13° |
| 2026-04-23 13:53 | 18.23575 | 5.85235 | 36866 ft | 487 kts | 13° |
| 2026-04-23 13:54 | 18.29928 | 5.87729 | 36863 ft | 493 kts | 13° |
| 2026-04-23 13:54 | 18.36446 | 5.90290 | 36862 ft | 499 kts | 13° |
| 2026-04-23 13:55 | 18.42943 | 5.92849 | 36863 ft | 498 kts | 14° |
| 2026-04-23 13:55 | 18.49442 | 5.95409 | 36865 ft | 498 kts | 13° |
| 2026-04-23 13:56 | 18.55939 | 5.97971 | 36858 ft | 499 kts | 13° |
| 2026-04-23 13:56 | 18.62460 | 6.00542 | 36855 ft | 501 kts | 13° |
| 2026-04-23 13:57 | 18.68993 | 6.03122 | 36853 ft | 499 kts | 13° |
| 2026-04-23 13:57 | 18.75479 | 6.05685 | 36844 ft | 500 kts | 13° |
| 2026-04-23 13:58 | 18.81989 | 6.08261 | 36842 ft | 497 kts | 13° |
| 2026-04-23 13:58 | 18.88471 | 6.10825 | 36842 ft | 501 kts | 13° |
| 2026-04-23 13:59 | 18.95002 | 6.13412 | 36839 ft | 501 kts | 13° |
| 2026-04-23 13:59 | 19.01555 | 6.16011 | 36842 ft | 498 kts | 13° |
| 2026-04-23 14:00 | 19.06992 | 6.18167 | 36845 ft | 502 kts | 13° |
| 2026-04-23 14:00 | 19.14617 | 6.21196 | 36849 ft | 500 kts | 13° |
| 2026-04-23 14:01 | 19.21075 | 6.23764 | 36853 ft | 497 kts | 13° |
| 2026-04-23 14:01 | 19.27578 | 6.26349 | 36858 ft | 501 kts | 13° |
| 2026-04-23 14:02 | 19.34100 | 6.28946 | 36860 ft | 499 kts | 13° |
| 2026-04-23 14:02 | 19.40620 | 6.31544 | 36858 ft | 501 kts | 13° |
| 2026-04-23 14:03 | 19.47128 | 6.34141 | 36861 ft | 496 kts | 13° |
| 2026-04-23 14:03 | 19.53596 | 6.36720 | 36859 ft | 502 kts | 13° |
| 2026-04-23 14:04 | 19.60120 | 6.39328 | 36854 ft | 500 kts | 13° |
| 2026-04-23 14:04 | 19.66628 | 6.41930 | 36863 ft | 501 kts | 13° |
| 2026-04-23 14:05 | 19.73157 | 6.44542 | 36860 ft | 501 kts | 13° |
| 2026-04-23 14:05 | 19.79690 | 6.47160 | 36865 ft | 500 kts | 13° |
| 2026-04-23 14:06 | 19.86190 | 6.49765 | 36864 ft | 500 kts | 12° |
| 2026-04-23 14:06 | 19.92690 | 6.52373 | 36866 ft | 502 kts | 13° |
| 2026-04-23 14:07 | 19.99236 | 6.55003 | 36867 ft | 497 kts | 13° |
| 2026-04-23 14:07 | 20.09118 | 6.58111 | 36860 ft | 480 kts | 357° |
| 2026-04-23 14:08 | 20.12427 | 6.58206 | 36871 ft | 468 kts | 348° |
| 2026-04-23 14:08 | 20.15628 | 6.57786 | 36872 ft | 461 kts | 340° |
| 2026-04-23 14:08 | 20.21581 | 6.55737 | 36876 ft | 447 kts | 332° |
| 2026-04-23 14:09 | 20.27398 | 6.53333 | 36876 ft | 451 kts | 332° |
| 2026-04-23 14:09 | 20.33230 | 6.50899 | 36878 ft | 447 kts | 332° |
| 2026-04-23 14:10 | 20.39007 | 6.48473 | 36879 ft | 448 kts | 331° |
| 2026-04-23 14:10 | 20.44808 | 6.46030 | 36885 ft | 448 kts | 331° |
| 2026-04-23 14:11 | 20.50608 | 6.43583 | 36888 ft | 444 kts | 331° |
| 2026-04-23 14:11 | 20.56395 | 6.41137 | 36887 ft | 447 kts | 332° |
| 2026-04-23 14:12 | 20.62149 | 6.38705 | 36895 ft | 445 kts | 331° |
| 2026-04-23 14:12 | 20.67948 | 6.36249 | 36900 ft | 445 kts | 331° |
| 2026-04-23 14:13 | 20.73723 | 6.33802 | 36903 ft | 445 kts | 331° |
| 2026-04-23 14:13 | 20.79461 | 6.31368 | 36904 ft | 444 kts | 331° |
| 2026-04-23 14:14 | 20.85193 | 6.28934 | 36902 ft | 443 kts | 331° |
| 2026-04-23 14:14 | 20.90943 | 6.26491 | 36896 ft | 443 kts | 331° |
| 2026-04-23 14:15 | 20.96663 | 6.24058 | 36899 ft | 442 kts | 331° |
| 2026-04-23 14:15 | 21.02393 | 6.21619 | 36898 ft | 443 kts | 331° |
| 2026-04-23 14:16 | 21.08115 | 6.19182 | 36896 ft | 441 kts | 330° |
| 2026-04-23 14:16 | 21.13831 | 6.16745 | 36902 ft | 441 kts | 330° |
| 2026-04-23 14:17 | 21.19511 | 6.14321 | 36905 ft | 441 kts | 330° |
| 2026-04-23 14:17 | 21.25247 | 6.11870 | 36904 ft | 443 kts | 330° |
| 2026-04-23 14:18 | 21.30919 | 6.09448 | 36906 ft | 439 kts | 330° |
| 2026-04-23 14:18 | 21.36620 | 6.07009 | 36907 ft | 441 kts | 330° |
| 2026-04-23 14:19 | 21.42315 | 6.04571 | 36911 ft | 439 kts | 330° |
| 2026-04-23 14:19 | 21.48013 | 6.02129 | 36923 ft | 440 kts | 330° |
| 2026-04-23 14:20 | 21.53717 | 5.99683 | 36927 ft | 442 kts | 330° |
| 2026-04-23 14:20 | 21.59441 | 5.97228 | 36936 ft | 439 kts | 330° |
| 2026-04-23 14:21 | 21.65135 | 5.94782 | 36935 ft | 440 kts | 330° |
| 2026-04-23 14:21 | 21.70783 | 5.92355 | 36941 ft | 438 kts | 330° |
| 2026-04-23 14:22 | 21.76486 | 5.89899 | 36947 ft | 439 kts | 330° |
| 2026-04-23 14:22 | 21.82125 | 5.87473 | 36955 ft | 436 kts | 330° |
| 2026-04-23 14:23 | 21.87801 | 5.85024 | 36968 ft | 439 kts | 330° |
| 2026-04-23 14:23 | 21.93467 | 5.82581 | 36978 ft | 437 kts | 330° |
| 2026-04-23 14:24 | 21.99128 | 5.80136 | 36991 ft | 438 kts | 330° |
| 2026-04-23 14:24 | 22.04804 | 5.77682 | 36995 ft | 440 kts | 330° |
| 2026-04-23 14:25 | 22.10432 | 5.75251 | 37004 ft | 436 kts | 330° |
| 2026-04-23 14:25 | 22.16094 | 5.72798 | 37009 ft | 438 kts | 330° |
| 2026-04-23 14:26 | 22.21733 | 5.70355 | 37017 ft | 438 kts | 330° |
| 2026-04-23 14:26 | 22.27397 | 5.67899 | 37022 ft | 437 kts | 330° |
| 2026-04-23 14:27 | 22.33022 | 5.65457 | 37039 ft | 438 kts | 330° |
| 2026-04-23 14:27 | 22.38662 | 5.63008 | 37043 ft | 437 kts | 330° |
| 2026-04-23 14:28 | 22.44323 | 5.60547 | 37048 ft | 435 kts | 330° |
| 2026-04-23 14:28 | 22.49916 | 5.58113 | 37070 ft | 436 kts | 330° |
| 2026-04-23 14:29 | 22.55588 | 5.55642 | 37072 ft | 436 kts | 330° |
| 2026-04-23 14:29 | 22.61190 | 5.53201 | 37084 ft | 436 kts | 329° |
| 2026-04-23 14:30 | 22.66801 | 5.50753 | 37085 ft | 434 kts | 330° |
| 2026-04-23 14:30 | 22.72420 | 5.48299 | 37098 ft | 434 kts | 330° |
| 2026-04-23 14:31 | 22.78053 | 5.45986 | 37102 ft | 440 kts | 336° |
| 2026-04-23 14:31 | 22.84230 | 5.45070 | 37107 ft | 463 kts | 351° |
| 2026-04-23 14:32 | 22.90708 | 5.45690 | 37119 ft | 471 kts | 356° |
| 2026-04-23 14:32 | 22.97230 | 5.46474 | 37132 ft | 469 kts | 356° |
| 2026-04-23 14:33 | 23.03715 | 5.47233 | 37155 ft | 469 kts | 356° |
| 2026-04-23 14:33 | 23.10254 | 5.47988 | 37191 ft | 472 kts | 355° |
| 2026-04-23 14:34 | 23.16779 | 5.48738 | 37219 ft | 470 kts | 355° |
| 2026-04-23 14:34 | 23.23265 | 5.49481 | 37256 ft | 470 kts | 355° |
| 2026-04-23 14:35 | 23.29779 | 5.50226 | 37260 ft | 471 kts | 355° |
| 2026-04-23 14:35 | 23.36261 | 5.50969 | 37227 ft | 469 kts | 355° |
| 2026-04-23 14:36 | 23.42711 | 5.51708 | 37195 ft | 466 kts | 355° |
| 2026-04-23 14:36 | 23.49217 | 5.52450 | 37156 ft | 469 kts | 355° |
| 2026-04-23 14:37 | 23.55695 | 5.53193 | 37139 ft | 467 kts | 355° |
| 2026-04-23 14:37 | 23.62134 | 5.53932 | 37129 ft | 467 kts | 355° |
| 2026-04-23 14:38 | 23.68592 | 5.54673 | 37122 ft | 468 kts | 355° |
| 2026-04-23 14:38 | 23.75031 | 5.55415 | 37110 ft | 463 kts | 355° |
| 2026-04-23 14:39 | 23.81499 | 5.56157 | 37114 ft | 467 kts | 355° |
| 2026-04-23 14:39 | 23.87914 | 5.56897 | 37107 ft | 463 kts | 354° |
| 2026-04-23 14:40 | 23.94355 | 5.57638 | 37110 ft | 465 kts | 355° |
| 2026-04-23 14:40 | 24.00778 | 5.58380 | 37111 ft | 465 kts | 355° |
| 2026-04-23 14:41 | 24.07197 | 5.59123 | 37109 ft | 459 kts | 355° |
| 2026-04-23 14:41 | 24.13582 | 5.59858 | 37117 ft | 464 kts | 354° |
| 2026-04-23 14:42 | 24.20011 | 5.60602 | 37113 ft | 463 kts | 354° |
| 2026-04-23 14:42 | 24.26413 | 5.61345 | 37114 ft | 463 kts | 354° |
| 2026-04-23 14:43 | 24.32804 | 5.62087 | 37105 ft | 460 kts | 354° |
| 2026-04-23 14:43 | 24.39176 | 5.62825 | 37098 ft | 462 kts | 354° |
| 2026-04-23 14:44 | 24.45548 | 5.63568 | 37086 ft | 457 kts | 354° |
| 2026-04-23 14:44 | 24.51907 | 5.64304 | 37083 ft | 462 kts | 354° |
| 2026-04-23 14:45 | 24.58292 | 5.65051 | 37076 ft | 457 kts | 354° |
| 2026-04-23 14:45 | 24.64597 | 5.65784 | 37067 ft | 456 kts | 354° |
| 2026-04-23 14:46 | 24.70933 | 5.66523 | 37057 ft | 457 kts | 354° |
| 2026-04-23 14:46 | 24.77264 | 5.67261 | 37050 ft | 458 kts | 354° |
| 2026-04-23 14:47 | 24.83614 | 5.68005 | 37044 ft | 456 kts | 354° |
| 2026-04-23 14:47 | 24.89905 | 5.68742 | 37043 ft | 455 kts | 353° |
| 2026-04-23 14:48 | 24.96221 | 5.69480 | 37037 ft | 455 kts | 353° |
| 2026-04-23 14:48 | 25.02489 | 5.70217 | 37037 ft | 453 kts | 353° |
| 2026-04-23 14:49 | 25.08766 | 5.70951 | 37041 ft | 456 kts | 353° |
| 2026-04-23 14:49 | 25.15078 | 5.71695 | 37055 ft | 452 kts | 353° |
| 2026-04-23 14:50 | 25.21314 | 5.72428 | 37070 ft | 454 kts | 353° |
| 2026-04-23 14:50 | 25.27634 | 5.73171 | 37071 ft | 454 kts | 353° |
| 2026-04-23 14:51 | 25.33887 | 5.73910 | 37076 ft | 453 kts | 353° |
| 2026-04-23 14:51 | 25.40131 | 5.74645 | 37068 ft | 454 kts | 353° |
| 2026-04-23 14:52 | 25.46449 | 5.75390 | 37066 ft | 454 kts | 353° |
| 2026-04-23 14:52 | 25.52726 | 5.76135 | 37059 ft | 453 kts | 353° |
| 2026-04-23 14:53 | 25.59008 | 5.76877 | 37053 ft | 454 kts | 353° |
| 2026-04-23 14:53 | 25.65275 | 5.77621 | 37038 ft | 451 kts | 353° |
| 2026-04-23 14:54 | 25.71538 | 5.78361 | 37037 ft | 457 kts | 354° |
| 2026-04-23 14:54 | 25.77834 | 5.79112 | 37025 ft | 452 kts | 353° |
| 2026-04-23 14:55 | 25.84153 | 5.79860 | 37021 ft | 456 kts | 353° |
| 2026-04-23 14:55 | 25.90405 | 5.80609 | 37017 ft | 449 kts | 354° |
| 2026-04-23 14:56 | 25.96605 | 5.81344 | 37017 ft | 453 kts | 354° |
| 2026-04-23 14:56 | 26.02877 | 5.82092 | 37010 ft | 453 kts | 353° |
| 2026-04-23 14:57 | 26.09097 | 5.82837 | 37016 ft | 447 kts | 353° |
| 2026-04-23 14:57 | 26.15376 | 5.83583 | 37036 ft | 453 kts | 353° |
| 2026-04-23 14:58 | 26.21622 | 5.84332 | 37033 ft | 450 kts | 353° |
| 2026-04-23 14:58 | 26.27889 | 5.85081 | 37034 ft | 451 kts | 353° |
| 2026-04-23 14:59 | 26.34117 | 5.85827 | 37025 ft | 454 kts | 354° |
| 2026-04-23 14:59 | 26.40362 | 5.86580 | 37004 ft | 449 kts | 353° |
| 2026-04-23 15:00 | 26.46604 | 5.87327 | 36999 ft | 451 kts | 354° |
| 2026-04-23 15:00 | 26.52816 | 5.88075 | 36980 ft | 449 kts | 353° |
| 2026-04-23 15:01 | 26.59117 | 5.88829 | 36982 ft | 455 kts | 353° |
| 2026-04-23 15:01 | 26.65393 | 5.89589 | 36987 ft | 452 kts | 353° |
| 2026-04-23 15:02 | 26.71641 | 5.90344 | 36994 ft | 450 kts | 354° |
| 2026-04-23 15:02 | 26.77848 | 5.91093 | 37000 ft | 452 kts | 353° |
| 2026-04-23 15:03 | 26.84151 | 5.91851 | 36990 ft | 456 kts | 354° |
| 2026-04-23 15:03 | 26.90378 | 5.92610 | 36973 ft | 450 kts | 353° |
| 2026-04-23 15:04 | 26.96644 | 5.93368 | 36948 ft | 450 kts | 354° |
| 2026-04-23 15:04 | 27.02868 | 5.94122 | 36932 ft | 451 kts | 354° |
| 2026-04-23 15:05 | 27.09140 | 5.94882 | 36926 ft | 453 kts | 353° |
| 2026-04-23 15:05 | 27.15400 | 5.95647 | 36943 ft | 449 kts | 354° |
| 2026-04-23 15:06 | 27.21621 | 5.96404 | 36942 ft | 448 kts | 354° |
| 2026-04-23 15:06 | 27.27874 | 5.97163 | 36940 ft | 453 kts | 354° |
| 2026-04-23 15:07 | 27.34110 | 5.97925 | 36937 ft | 450 kts | 354° |
| 2026-04-23 15:07 | 27.40346 | 5.98687 | 36933 ft | 449 kts | 354° |
| 2026-04-23 15:08 | 27.46603 | 5.99451 | 36936 ft | 451 kts | 354° |
| 2026-04-23 15:09 | 27.55903 | 6.00593 | 36937 ft | 447 kts | 354° |
| 2026-04-23 15:09 | 27.62145 | 6.01352 | 36938 ft | 453 kts | 354° |
| 2026-04-23 15:10 | 27.67344 | 6.01995 | 36941 ft | 449 kts | 355° |
| 2026-04-23 15:10 | 27.74600 | 6.02885 | 36939 ft | 450 kts | 355° |
| 2026-04-23 15:11 | 27.80807 | 6.03650 | 36937 ft | 450 kts | 355° |
| 2026-04-23 15:11 | 27.87071 | 6.04420 | 36932 ft | 450 kts | 355° |
| 2026-04-23 15:12 | 27.93268 | 6.05186 | 36928 ft | 449 kts | 355° |
| 2026-04-23 15:12 | 27.99502 | 6.05954 | 36932 ft | 449 kts | 355° |
| 2026-04-23 15:13 | 28.05636 | 6.06715 | 36927 ft | 446 kts | 355° |
| 2026-04-23 15:13 | 28.11833 | 6.07478 | 36944 ft | 451 kts | 355° |
| 2026-04-23 15:14 | 28.18104 | 6.08256 | 36941 ft | 449 kts | 355° |
| 2026-04-23 15:14 | 28.24300 | 6.09024 | 36942 ft | 450 kts | 355° |
| 2026-04-23 15:15 | 28.30525 | 6.09800 | 36935 ft | 446 kts | 355° |
| 2026-04-23 15:15 | 28.36730 | 6.10569 | 36941 ft | 451 kts | 355° |
| 2026-04-23 15:16 | 28.42953 | 6.11345 | 36934 ft | 447 kts | 355° |
| 2026-04-23 15:16 | 28.49144 | 6.12116 | 36938 ft | 448 kts | 356° |
| 2026-04-23 15:17 | 28.55277 | 6.12882 | 36934 ft | 448 kts | 355° |
| 2026-04-23 15:17 | 28.61526 | 6.13661 | 36935 ft | 450 kts | 356° |
| 2026-04-23 15:18 | 28.67737 | 6.14438 | 36929 ft | 449 kts | 356° |
| 2026-04-23 15:18 | 28.73907 | 6.15212 | 36917 ft | 451 kts | 356° |
| 2026-04-23 15:19 | 28.80184 | 6.15998 | 36908 ft | 450 kts | 356° |
| 2026-04-23 15:19 | 28.86387 | 6.16777 | 36912 ft | 452 kts | 356° |
| 2026-04-23 15:20 | 28.91603 | 6.17433 | 36908 ft | 450 kts | 356° |
| 2026-04-23 15:20 | 28.98805 | 6.18341 | 36908 ft | 449 kts | 356° |
| 2026-04-23 15:21 | 29.05039 | 6.19126 | 36910 ft | 449 kts | 356° |
| 2026-04-23 15:21 | 29.11226 | 6.19909 | 36919 ft | 446 kts | 356° |
| 2026-04-23 15:22 | 29.17430 | 6.20689 | 36918 ft | 451 kts | 357° |
| 2026-04-23 15:22 | 29.23653 | 6.21477 | 36922 ft | 450 kts | 357° |
| 2026-04-23 15:23 | 29.29827 | 6.22260 | 36923 ft | 449 kts | 356° |
| 2026-04-23 15:23 | 29.36057 | 6.23048 | 36917 ft | 452 kts | 357° |
| 2026-04-23 15:24 | 29.42289 | 6.23841 | 36913 ft | 451 kts | 356° |
| 2026-04-23 15:24 | 29.48525 | 6.24634 | 36918 ft | 449 kts | 357° |
| 2026-04-23 15:25 | 29.54754 | 6.25426 | 36913 ft | 452 kts | 357° |
| 2026-04-23 15:25 | 29.59948 | 6.26087 | 36913 ft | 452 kts | 357° |
| 2026-04-23 15:26 | 29.67235 | 6.27019 | 36910 ft | 447 kts | 358° |
| 2026-04-23 15:26 | 29.73465 | 6.27812 | 36918 ft | 453 kts | 358° |
| 2026-04-23 15:27 | 29.79690 | 6.28610 | 36916 ft | 452 kts | 358° |
| 2026-04-23 15:27 | 29.85941 | 6.29411 | 36921 ft | 451 kts | 358° |
| 2026-04-23 15:28 | 29.92208 | 6.30213 | 36924 ft | 454 kts | 358° |
| 2026-04-23 15:28 | 29.98482 | 6.31019 | 36924 ft | 453 kts | 358° |
| 2026-04-23 15:29 | 30.04702 | 6.31820 | 36917 ft | 451 kts | 358° |
| 2026-04-23 15:29 | 30.10963 | 6.32625 | 36921 ft | 453 kts | 358° |
| 2026-04-23 15:30 | 30.17228 | 6.33433 | 36934 ft | 452 kts | 358° |
| 2026-04-23 15:30 | 30.23540 | 6.34246 | 36926 ft | 454 kts | 358° |
| 2026-04-23 15:31 | 30.29766 | 6.35052 | 36914 ft | 451 kts | 358° |
| 2026-04-23 15:31 | 30.36031 | 6.35861 | 36926 ft | 455 kts | 359° |
| 2026-04-23 15:32 | 30.42331 | 6.36678 | 36923 ft | 453 kts | 359° |
| 2026-04-23 15:32 | 30.48584 | 6.37488 | 36920 ft | 456 kts | 359° |
| 2026-04-23 15:33 | 30.54909 | 6.38311 | 36922 ft | 454 kts | 359° |
| 2026-04-23 15:33 | 30.61183 | 6.39126 | 36918 ft | 456 kts | 359° |
| 2026-04-23 15:34 | 30.67499 | 6.39949 | 36925 ft | 456 kts | 359° |
| 2026-04-23 15:34 | 30.73774 | 6.40768 | 36910 ft | 455 kts | 359° |
| 2026-04-23 15:35 | 30.80098 | 6.41593 | 36908 ft | 456 kts | 359° |
| 2026-04-23 15:35 | 30.86367 | 6.42413 | 36913 ft | 454 kts | 360° |
| 2026-04-23 15:36 | 30.92669 | 6.43238 | 36908 ft | 456 kts | 360° |
| 2026-04-23 15:36 | 30.98975 | 6.44064 | 36899 ft | 457 kts | 360° |
| 2026-04-23 15:37 | 31.05283 | 6.44893 | 36897 ft | 455 kts | 360° |
| 2026-04-23 15:37 | 31.10517 | 6.45580 | 36914 ft | 456 kts | 0° |
| 2026-04-23 15:38 | 31.17885 | 6.46551 | 36920 ft | 456 kts | 0° |
| 2026-04-23 15:38 | 31.24178 | 6.47379 | 36918 ft | 458 kts | 0° |
| 2026-04-23 15:39 | 31.30521 | 6.48217 | 36930 ft | 456 kts | 0° |
| 2026-04-23 15:39 | 31.36848 | 6.49052 | 36937 ft | 459 kts | 0° |
| 2026-04-23 15:40 | 31.43194 | 6.49893 | 36927 ft | 457 kts | 0° |
| 2026-04-23 15:40 | 31.49472 | 6.50725 | 36935 ft | 458 kts | 0° |
| 2026-04-23 15:41 | 31.55824 | 6.51567 | 36914 ft | 460 kts | 0° |
| 2026-04-23 15:41 | 31.62170 | 6.52411 | 36936 ft | 459 kts | 1° |
| 2026-04-23 15:42 | 31.68524 | 6.53256 | 36935 ft | 460 kts | 1° |
| 2026-04-23 15:42 | 31.74910 | 6.54107 | 36919 ft | 460 kts | 1° |
| 2026-04-23 15:43 | 31.81242 | 6.54952 | 36939 ft | 461 kts | 1° |
| 2026-04-23 15:43 | 31.87620 | 6.55805 | 36938 ft | 460 kts | 1° |
| 2026-04-23 15:44 | 31.93958 | 6.56653 | 36943 ft | 459 kts | 1° |
| 2026-04-23 15:44 | 32.00347 | 6.57508 | 36932 ft | 462 kts | 1° |
| 2026-04-23 15:45 | 32.06723 | 6.58364 | 36935 ft | 461 kts | 1° |
| 2026-04-23 15:45 | 32.13101 | 6.59222 | 36947 ft | 460 kts | 1° |
| 2026-04-23 15:46 | 32.19449 | 6.60076 | 36945 ft | 458 kts | 1° |
| 2026-04-23 15:46 | 32.25785 | 6.60929 | 36954 ft | 461 kts | 1° |
| 2026-04-23 15:47 | 32.32145 | 6.61787 | 36947 ft | 460 kts | 1° |
| 2026-04-23 15:47 | 32.38206 | 6.62607 | 36954 ft | 460 kts | 1° |
| 2026-04-23 15:48 | 32.44564 | 6.63467 | 36953 ft | 460 kts | 1° |
| 2026-04-23 15:48 | 32.50947 | 6.64332 | 36949 ft | 461 kts | 1° |
| 2026-04-23 15:49 | 32.57310 | 6.65195 | 36930 ft | 461 kts | 2° |
| 2026-04-23 15:49 | 32.63709 | 6.66065 | 36931 ft | 461 kts | 2° |
| 2026-04-23 15:50 | 32.70062 | 6.66929 | 36925 ft | 461 kts | 2° |
| 2026-04-23 15:50 | 32.76419 | 6.67796 | 36921 ft | 461 kts | 2° |
| 2026-04-23 15:51 | 32.82811 | 6.68668 | 36923 ft | 460 kts | 2° |
| 2026-04-23 15:51 | 32.89166 | 6.69536 | 36925 ft | 462 kts | 2° |
| 2026-04-23 15:52 | 32.95554 | 6.70411 | 36924 ft | 462 kts | 2° |
| 2026-04-23 15:52 | 33.01943 | 6.71287 | 36924 ft | 461 kts | 2° |
| 2026-04-23 15:53 | 33.08305 | 6.72160 | 36924 ft | 461 kts | 2° |
| 2026-04-23 15:53 | 33.14682 | 6.73037 | 36929 ft | 461 kts | 2° |
| 2026-04-23 15:54 | 33.21043 | 6.73912 | 36929 ft | 462 kts | 2° |
| 2026-04-23 15:54 | 33.27393 | 6.74788 | 36931 ft | 460 kts | 2° |
| 2026-04-23 15:55 | 33.33788 | 6.75671 | 36930 ft | 462 kts | 2° |
| 2026-04-23 15:55 | 33.40140 | 6.76550 | 36932 ft | 461 kts | 2° |
| 2026-04-23 15:56 | 33.46518 | 6.77433 | 36933 ft | 461 kts | 2° |
| 2026-04-23 15:56 | 33.52898 | 6.77952 | 36931 ft | 456 kts | 354° |
| 2026-04-23 15:57 | 33.59213 | 6.77581 | 36928 ft | 455 kts | 353° |
| 2026-04-23 15:57 | 33.65551 | 6.77189 | 36931 ft | 456 kts | 353° |
| 2026-04-23 15:58 | 33.71904 | 6.76799 | 36936 ft | 455 kts | 353° |
| 2026-04-23 15:58 | 33.78202 | 6.76414 | 36930 ft | 456 kts | 353° |
| 2026-04-23 15:59 | 33.84515 | 6.76028 | 36926 ft | 455 kts | 353° |
| 2026-04-23 15:59 | 33.90879 | 6.75640 | 36922 ft | 456 kts | 353° |
| 2026-04-23 16:00 | 33.97182 | 6.75254 | 36919 ft | 457 kts | 353° |
| 2026-04-23 16:00 | 34.03524 | 6.74866 | 36922 ft | 456 kts | 353° |
| 2026-04-23 16:01 | 34.09855 | 6.74478 | 36914 ft | 456 kts | 353° |
| 2026-04-23 16:01 | 34.16192 | 6.74089 | 36927 ft | 455 kts | 353° |
| 2026-04-23 16:02 | 34.22493 | 6.73701 | 36926 ft | 456 kts | 353° |
| 2026-04-23 16:02 | 34.28816 | 6.73312 | 36929 ft | 455 kts | 353° |
| 2026-04-23 16:03 | 34.35127 | 6.72923 | 36930 ft | 454 kts | 353° |
| 2026-04-23 16:03 | 34.41464 | 6.72531 | 36939 ft | 456 kts | 353° |
| 2026-04-23 16:04 | 34.47760 | 6.72142 | 36940 ft | 454 kts | 353° |
| 2026-04-23 16:04 | 34.54053 | 6.71752 | 36946 ft | 454 kts | 353° |
| 2026-04-23 16:05 | 34.59341 | 6.71424 | 36955 ft | 455 kts | 353° |
| 2026-04-23 16:05 | 34.66696 | 6.70967 | 36958 ft | 454 kts | 354° |
| 2026-04-23 16:06 | 34.73013 | 6.70573 | 36961 ft | 455 kts | 354° |
| 2026-04-23 16:06 | 34.79324 | 6.70180 | 36986 ft | 453 kts | 353° |
| 2026-04-23 16:07 | 34.85614 | 6.69793 | 37016 ft | 453 kts | 354° |
| 2026-04-23 16:07 | 34.91926 | 6.69407 | 37037 ft | 454 kts | 353° |
| 2026-04-23 16:08 | 34.98203 | 6.69022 | 37065 ft | 452 kts | 353° |
| 2026-04-23 16:08 | 35.04512 | 6.68634 | 37084 ft | 453 kts | 353° |
| 2026-04-23 16:09 | 35.10829 | 6.68245 | 37103 ft | 454 kts | 353° |
| 2026-04-23 16:09 | 35.17121 | 6.67856 | 37130 ft | 455 kts | 353° |
| 2026-04-23 16:10 | 35.23434 | 6.67466 | 37152 ft | 454 kts | 354° |
| 2026-04-23 16:10 | 35.29741 | 6.67076 | 37159 ft | 454 kts | 353° |
| 2026-04-23 16:11 | 35.36013 | 6.66688 | 37148 ft | 453 kts | 354° |
| 2026-04-23 16:11 | 35.42306 | 6.66297 | 37134 ft | 453 kts | 354° |
| 2026-04-23 16:12 | 35.48622 | 6.65904 | 37120 ft | 453 kts | 354° |
| 2026-04-23 16:12 | 35.54869 | 6.65515 | 37112 ft | 452 kts | 354° |
| 2026-04-23 16:13 | 35.61150 | 6.65123 | 37110 ft | 453 kts | 354° |
| 2026-04-23 16:13 | 35.70611 | 6.64532 | 37108 ft | 453 kts | 354° |
| 2026-04-23 16:14 | 35.76872 | 6.64140 | 37105 ft | 451 kts | 354° |
| 2026-04-23 16:14 | 35.83112 | 6.63749 | 37103 ft | 452 kts | 354° |
| 2026-04-23 16:15 | 35.89383 | 6.63355 | 37107 ft | 452 kts | 353° |
| 2026-04-23 16:15 | 35.95668 | 6.62960 | 37106 ft | 451 kts | 354° |
| 2026-04-23 16:16 | 36.01926 | 6.62565 | 37104 ft | 451 kts | 353° |
| 2026-04-23 16:16 | 36.08195 | 6.62169 | 37098 ft | 453 kts | 354° |
| 2026-04-23 16:17 | 36.14476 | 6.61773 | 37099 ft | 451 kts | 354° |
| 2026-04-23 16:17 | 36.20766 | 6.61374 | 37097 ft | 451 kts | 354° |
| 2026-04-23 16:18 | 36.26996 | 6.60980 | 37091 ft | 451 kts | 353° |
| 2026-04-23 16:18 | 36.33221 | 6.60124 | 37091 ft | 448 kts | 348° |
| 2026-04-23 16:19 | 36.39346 | 6.58981 | 37084 ft | 447 kts | 348° |
| 2026-04-23 16:19 | 36.45481 | 6.57837 | 37081 ft | 447 kts | 348° |
| 2026-04-23 16:20 | 36.51651 | 6.56686 | 37073 ft | 447 kts | 348° |
| 2026-04-23 16:20 | 36.57783 | 6.55542 | 37062 ft | 447 kts | 348° |
| 2026-04-23 16:21 | 36.63908 | 6.54398 | 37058 ft | 447 kts | 348° |
| 2026-04-23 16:21 | 36.70040 | 6.53250 | 37057 ft | 446 kts | 348° |
| 2026-04-23 16:22 | 36.76173 | 6.52101 | 37061 ft | 446 kts | 348° |
| 2026-04-23 16:22 | 36.82281 | 6.50955 | 37058 ft | 446 kts | 348° |
| 2026-04-23 16:23 | 36.88430 | 6.49799 | 37056 ft | 446 kts | 348° |
| 2026-04-23 16:23 | 36.94558 | 6.48645 | 37055 ft | 446 kts | 348° |
| 2026-04-23 16:24 | 37.00658 | 6.47495 | 37045 ft | 445 kts | 348° |
| 2026-04-23 16:24 | 37.06798 | 6.46335 | 37042 ft | 444 kts | 348° |
| 2026-04-23 16:25 | 37.12892 | 6.45182 | 37054 ft | 445 kts | 348° |
| 2026-04-23 16:25 | 37.18985 | 6.44028 | 37052 ft | 443 kts | 348° |
| 2026-04-23 16:26 | 37.25080 | 6.42871 | 37055 ft | 443 kts | 348° |
| 2026-04-23 16:26 | 37.31195 | 6.41709 | 37055 ft | 443 kts | 348° |
| 2026-04-23 16:27 | 37.37264 | 6.40552 | 37048 ft | 443 kts | 348° |
| 2026-04-23 16:27 | 37.43343 | 6.39393 | 37054 ft | 444 kts | 348° |
| 2026-04-23 16:28 | 37.49451 | 6.38226 | 37049 ft | 444 kts | 348° |
| 2026-04-23 16:28 | 37.55526 | 6.37064 | 37054 ft | 443 kts | 348° |
| 2026-04-23 16:29 | 37.61604 | 6.35899 | 37062 ft | 441 kts | 348° |
| 2026-04-23 16:29 | 37.67704 | 6.34727 | 37071 ft | 442 kts | 348° |
| 2026-04-23 16:30 | 37.73744 | 6.33566 | 37069 ft | 440 kts | 348° |
| 2026-04-23 16:30 | 37.79794 | 6.32400 | 37071 ft | 440 kts | 348° |
| 2026-04-23 16:31 | 37.85841 | 6.31233 | 37070 ft | 440 kts | 347° |
| 2026-04-23 16:31 | 37.91867 | 6.30068 | 37073 ft | 441 kts | 348° |
| 2026-04-23 16:32 | 37.97946 | 6.28892 | 37078 ft | 440 kts | 348° |
| 2026-04-23 16:32 | 38.03972 | 6.27723 | 37074 ft | 440 kts | 348° |
| 2026-04-23 16:33 | 38.10032 | 6.26546 | 37083 ft | 439 kts | 348° |
| 2026-04-23 16:33 | 38.16048 | 6.25375 | 37092 ft | 440 kts | 348° |
| 2026-04-23 16:34 | 38.22109 | 6.24194 | 37092 ft | 439 kts | 348° |
| 2026-04-23 16:34 | 38.28148 | 6.23015 | 37096 ft | 439 kts | 348° |
| 2026-04-23 16:35 | 38.34152 | 6.21841 | 37096 ft | 439 kts | 348° |
| 2026-04-23 16:35 | 38.40176 | 6.20661 | 37096 ft | 438 kts | 348° |
| 2026-04-23 16:36 | 38.46194 | 6.19480 | 37099 ft | 438 kts | 348° |
| 2026-04-23 16:36 | 38.52195 | 6.18300 | 37097 ft | 439 kts | 348° |
| 2026-04-23 16:37 | 38.58223 | 6.17113 | 37100 ft | 438 kts | 348° |
| 2026-04-23 16:37 | 38.64264 | 6.15922 | 37102 ft | 438 kts | 347° |
| 2026-04-23 16:38 | 38.70267 | 6.14736 | 37103 ft | 438 kts | 348° |
| 2026-04-23 16:38 | 38.76304 | 6.13542 | 37100 ft | 437 kts | 348° |
| 2026-04-23 16:39 | 38.82307 | 6.12351 | 37109 ft | 438 kts | 348° |
| 2026-04-23 16:39 | 38.88318 | 6.11158 | 37106 ft | 440 kts | 348° |
| 2026-04-23 16:40 | 38.94344 | 6.09959 | 37114 ft | 436 kts | 348° |
| 2026-04-23 16:40 | 39.00325 | 6.08768 | 37113 ft | 437 kts | 348° |
| 2026-04-23 16:41 | 39.06383 | 6.07694 | 37113 ft | 438 kts | 349° |
| 2026-04-23 16:41 | 39.12421 | 6.06646 | 37122 ft | 437 kts | 349° |
| 2026-04-23 16:42 | 39.18438 | 6.05595 | 37123 ft | 438 kts | 349° |
| 2026-04-23 16:42 | 39.24473 | 6.04536 | 37124 ft | 437 kts | 349° |
| 2026-04-23 16:43 | 39.30469 | 6.03481 | 37125 ft | 437 kts | 349° |
| 2026-04-23 16:43 | 39.36495 | 6.02417 | 37125 ft | 437 kts | 349° |
| 2026-04-23 16:44 | 39.42498 | 6.01356 | 37128 ft | 438 kts | 349° |
| 2026-04-23 16:44 | 39.48507 | 6.00292 | 37124 ft | 438 kts | 349° |
| 2026-04-23 16:45 | 39.54579 | 5.99214 | 37127 ft | 438 kts | 349° |
| 2026-04-23 16:45 | 39.60571 | 5.98150 | 37126 ft | 436 kts | 349° |
| 2026-04-23 16:46 | 39.66579 | 5.97079 | 37125 ft | 438 kts | 349° |
| 2026-04-23 16:46 | 39.72626 | 5.96001 | 37124 ft | 438 kts | 349° |
| 2026-04-23 16:47 | 39.78658 | 5.94923 | 37127 ft | 438 kts | 349° |
| 2026-04-23 16:47 | 39.84657 | 5.93849 | 37129 ft | 438 kts | 349° |
| 2026-04-23 16:48 | 39.90715 | 5.92762 | 37125 ft | 438 kts | 349° |
| 2026-04-23 16:48 | 39.96725 | 5.91683 | 37127 ft | 436 kts | 349° |
| 2026-04-23 16:49 | 40.02745 | 5.90599 | 37127 ft | 438 kts | 349° |
| 2026-04-23 16:49 | 40.08735 | 5.89519 | 37128 ft | 438 kts | 349° |
| 2026-04-23 16:50 | 40.14789 | 5.88426 | 37143 ft | 436 kts | 349° |
| 2026-04-23 16:50 | 40.20786 | 5.87341 | 37138 ft | 435 kts | 349° |
| 2026-04-23 16:51 | 40.26752 | 5.86259 | 37136 ft | 436 kts | 349° |
| 2026-04-23 16:51 | 40.32756 | 5.85169 | 37146 ft | 435 kts | 349° |
| 2026-04-23 16:52 | 40.38744 | 5.84079 | 37145 ft | 438 kts | 349° |
| 2026-04-23 16:52 | 40.44783 | 5.82979 | 37141 ft | 437 kts | 349° |
| 2026-04-23 16:53 | 40.50777 | 5.82025 | 37141 ft | 436 kts | 350° |
| 2026-04-23 16:53 | 40.56810 | 5.81083 | 37143 ft | 437 kts | 350° |
| 2026-04-23 16:54 | 40.62828 | 5.80138 | 37142 ft | 438 kts | 350° |
| 2026-04-23 16:54 | 40.68862 | 5.79185 | 37145 ft | 437 kts | 350° |
| 2026-04-23 16:55 | 40.74910 | 5.78227 | 37147 ft | 436 kts | 350° |
| 2026-04-23 16:55 | 40.80889 | 5.77278 | 37148 ft | 436 kts | 350° |
| 2026-04-23 16:56 | 40.86911 | 5.76319 | 37145 ft | 435 kts | 350° |
| 2026-04-23 16:56 | 40.92894 | 5.75365 | 37147 ft | 435 kts | 350° |
| 2026-04-23 16:57 | 40.98927 | 5.74401 | 37146 ft | 436 kts | 350° |
| 2026-04-23 16:57 | 41.04935 | 5.73440 | 37151 ft | 436 kts | 350° |
| 2026-04-23 16:58 | 41.10931 | 5.72478 | 37156 ft | 436 kts | 350° |
| 2026-04-23 16:58 | 41.16929 | 5.71514 | 37163 ft | 435 kts | 350° |
| 2026-04-23 16:59 | 41.22958 | 5.70544 | 37162 ft | 436 kts | 350° |
| 2026-04-23 16:59 | 41.28941 | 5.69579 | 37164 ft | 436 kts | 350° |
| 2026-04-23 17:00 | 41.34981 | 5.68603 | 37165 ft | 435 kts | 350° |
| 2026-04-23 17:00 | 41.40985 | 5.67631 | 37164 ft | 435 kts | 350° |
| 2026-04-23 17:01 | 41.46960 | 5.66662 | 37166 ft | 435 kts | 350° |
| 2026-04-23 17:01 | 41.52974 | 5.65685 | 37164 ft | 434 kts | 351° |
| 2026-04-23 17:02 | 41.58943 | 5.64714 | 37165 ft | 435 kts | 350° |
| 2026-04-23 17:02 | 41.64959 | 5.63732 | 37166 ft | 436 kts | 351° |
| 2026-04-23 17:03 | 41.70921 | 5.62759 | 37165 ft | 434 kts | 350° |
| 2026-04-23 17:03 | 41.76904 | 5.61779 | 37164 ft | 434 kts | 350° |
| 2026-04-23 17:04 | 41.82879 | 5.60697 | 37165 ft | 434 kts | 349° |
| 2026-04-23 17:04 | 41.88839 | 5.59546 | 37166 ft | 434 kts | 349° |
| 2026-04-23 17:05 | 41.94806 | 5.58398 | 37166 ft | 435 kts | 349° |
| 2026-04-23 17:05 | 42.00786 | 5.57249 | 37168 ft | 434 kts | 349° |
| 2026-04-23 17:06 | 42.06755 | 5.56101 | 37167 ft | 434 kts | 349° |
| 2026-04-23 17:06 | 42.12725 | 5.54952 | 37182 ft | 434 kts | 349° |
| 2026-04-23 17:07 | 42.18694 | 5.53801 | 37181 ft | 434 kts | 349° |
| 2026-04-23 17:07 | 42.24687 | 5.52643 | 37180 ft | 436 kts | 349° |
| 2026-04-23 17:08 | 42.30703 | 5.51479 | 37182 ft | 436 kts | 349° |
| 2026-04-23 17:08 | 42.36676 | 5.50321 | 37180 ft | 434 kts | 350° |
| 2026-04-23 17:09 | 42.42639 | 5.49163 | 37180 ft | 436 kts | 350° |
| 2026-04-23 17:09 | 42.48608 | 5.48002 | 37180 ft | 435 kts | 349° |
| 2026-04-23 17:10 | 42.51609 | 5.47417 | 37053 ft | 435 kts | 350° |
| 2026-04-23 17:10 | 42.54624 | 5.46828 | 37186 ft | 439 kts | 350° |
| 2026-04-23 17:10 | 42.60676 | 5.45646 | 37182 ft | 438 kts | 350° |
| 2026-04-23 17:11 | 42.66672 | 5.44473 | 37180 ft | 438 kts | 350° |
| 2026-04-23 17:11 | 42.72702 | 5.43290 | 37187 ft | 439 kts | 350° |
| 2026-04-23 17:12 | 42.78738 | 5.42104 | 37184 ft | 438 kts | 350° |
| 2026-04-23 17:12 | 42.84769 | 5.40916 | 37182 ft | 438 kts | 350° |
| 2026-04-23 17:13 | 42.90764 | 5.39734 | 37182 ft | 439 kts | 350° |
| 2026-04-23 17:13 | 42.96811 | 5.38539 | 37185 ft | 439 kts | 350° |
| 2026-04-23 17:14 | 43.02828 | 5.37347 | 37179 ft | 439 kts | 350° |
| 2026-04-23 17:14 | 43.08901 | 5.36142 | 37180 ft | 440 kts | 350° |
| 2026-04-23 17:15 | 43.14933 | 5.34942 | 37191 ft | 440 kts | 349° |
| 2026-04-23 17:15 | 43.20990 | 5.33735 | 37192 ft | 440 kts | 349° |
| 2026-04-23 17:16 | 43.26994 | 5.32301 | 37199 ft | 440 kts | 346° |
| 2026-04-23 17:16 | 43.32995 | 5.30469 | 37202 ft | 440 kts | 346° |
| 2026-04-23 17:17 | 43.38957 | 5.28670 | 37203 ft | 440 kts | 346° |
| 2026-04-23 17:17 | 43.44950 | 5.26876 | 37203 ft | 441 kts | 346° |
| 2026-04-23 17:18 | 43.53904 | 5.24203 | 37204 ft | 441 kts | 346° |
| 2026-04-23 17:19 | 43.59905 | 5.22411 | 37198 ft | 441 kts | 346° |
| 2026-04-23 17:19 | 43.65883 | 5.20624 | 37203 ft | 443 kts | 346° |
| 2026-04-23 17:20 | 43.71907 | 5.18821 | 37201 ft | 443 kts | 346° |
| 2026-04-23 17:21 | 43.83904 | 5.15219 | 37201 ft | 443 kts | 346° |
| 2026-04-23 17:21 | 43.92941 | 5.12496 | 37196 ft | 444 kts | 346° |
| 2026-04-23 17:22 | 44.01966 | 5.09769 | 37198 ft | 445 kts | 346° |
| 2026-04-23 17:23 | 44.11028 | 5.07021 | 37194 ft | 445 kts | 346° |
| 2026-04-23 17:24 | 44.20136 | 5.04251 | 37186 ft | 448 kts | 346° |
| 2026-04-23 17:24 | 44.29246 | 5.01472 | 37176 ft | 449 kts | 347° |
| 2026-04-23 17:25 | 44.38421 | 4.98664 | 37181 ft | 450 kts | 347° |
| 2026-04-23 17:26 | 44.50640 | 4.94911 | 37181 ft | 451 kts | 347° |
| 2026-04-23 17:27 | 44.59827 | 4.92078 | 37183 ft | 451 kts | 347° |
| 2026-04-23 17:27 | 44.65957 | 4.90182 | 37173 ft | 455 kts | 347° |
| 2026-04-23 17:28 | 44.72103 | 4.88278 | 37172 ft | 455 kts | 347° |
| 2026-04-23 17:28 | 44.78281 | 4.86360 | 37172 ft | 457 kts | 347° |
| 2026-04-23 17:29 | 44.84466 | 4.84435 | 37172 ft | 457 kts | 347° |
| 2026-04-23 17:30 | 44.92762 | 4.81846 | 37172 ft | 459 kts | 347° |
| 2026-04-23 17:30 | 45.03070 | 4.78619 | 37175 ft | 459 kts | 347° |
| 2026-04-23 17:31 | 45.09277 | 4.76670 | 37173 ft | 458 kts | 347° |
| 2026-04-23 17:31 | 45.15549 | 4.74697 | 37180 ft | 459 kts | 347° |
| 2026-04-23 17:32 | 45.21772 | 4.72734 | 37181 ft | 461 kts | 347° |
| 2026-04-23 17:32 | 45.28016 | 4.70760 | 37187 ft | 461 kts | 347° |
| 2026-04-23 17:33 | 45.34284 | 4.68774 | 37191 ft | 461 kts | 347° |
| 2026-04-23 17:33 | 45.40519 | 4.66794 | 37189 ft | 462 kts | 348° |
| 2026-04-23 17:34 | 45.46795 | 4.64797 | 37179 ft | 463 kts | 348° |
| 2026-04-23 17:35 | 45.56302 | 4.61763 | 37192 ft | 468 kts | 348° |
| 2026-04-23 17:35 | 45.65757 | 4.58735 | 37183 ft | 466 kts | 348° |
| 2026-04-23 17:36 | 45.72114 | 4.56693 | 37192 ft | 472 kts | 348° |
| 2026-04-23 17:36 | 45.78440 | 4.54656 | 37187 ft | 470 kts | 348° |